Time,TemperatureF,DewpointF,PressureIn,WindDirection,WindDirectionDegrees,WindSpeedMPH,WindSpeedGustMPH,Humidity,HourlyPrecipIn,Conditions,Clouds,dailyrainin,SoftwareType,DateUTC
2013-04-10 00:00:00,28.7,21.5,30.10,NE,49,2.0,7.0,74,0.00,,SKC,0.00,VWS V14.01,2013-04-10 05:00:00,
2013-04-10 00:02:00,28.8,21.2,30.03,East,95,2.0,4.0,73,0.00,,SKC,0.00,VWS V14.01,2013-04-10 05:02:00,
2013-04-10 00:05:00,28.8,21.6,30.10,ENE,72,1.0,3.0,74,0.00,,SKC,0.00,VWS V14.01,2013-04-10 05:05:00,
2013-04-10 00:07:00,28.7,20.8,30.03,NE,48,2.0,2.0,72,0.00,,SKC,0.00,VWS V14.01,2013-04-10 05:07:00,
2013-04-10 00:10:00,28.8,21.6,30.10,NNW,341,0.0,4.0,74,0.00,,SKC,0.00,VWS V14.01,2013-04-10 05:10:00,
2013-04-10 00:12:00,28.7,20.8,30.03,NE,40,5.0,5.0,72,0.00,,SKC,0.00,VWS V14.01,2013-04-10 05:12:00,
2013-04-10 00:15:00,28.8,21.6,30.11,SE,125,0.0,3.0,74,0.00,,SKC,0.00,VWS V14.01,2013-04-10 05:15:00,
2013-04-10 00:17:00,28.7,21.1,30.05,ENE,65,7.0,10.0,73,0.00,,SKC,0.00,VWS V14.01,2013-04-10 05:17:00,
2013-04-10 00:20:00,28.8,21.6,30.11,ENE,68,1.0,3.0,74,0.00,,SKC,0.00,VWS V14.01,2013-04-10 05:20:00,
2013-04-10 00:22:00,28.7,20.8,30.05,ENE,66,3.0,3.0,72,0.00,,SKC,0.00,VWS V14.01,2013-04-10 05:22:00,
2013-04-10 00:25:00,28.8,21.9,30.11,ENE,68,2.0,3.0,75,0.00,,SKC,0.00,VWS V14.01,2013-04-10 05:25:00,
2013-04-10 00:27:00,28.7,21.1,30.05,ENE,76,1.0,4.0,73,0.00,,SKC,0.00,VWS V14.01,2013-04-10 05:27:00,
2013-04-10 00:30:00,28.8,21.6,30.11,NE,50,2.0,4.0,74,0.00,,SKC,0.00,VWS V14.01,2013-04-10 05:30:00,
2013-04-10 00:33:00,28.7,21.5,30.07,NNE,12,1.0,2.0,74,0.00,,SKC,0.00,VWS V14.01,2013-04-10 05:33:00,
2013-04-10 00:35:00,28.8,21.6,30.11,ENE,61,2.0,2.0,74,0.00,,SKC,0.00,VWS V14.01,2013-04-10 05:35:00,
2013-04-10 00:38:00,28.7,21.1,30.07,ENE,63,2.0,4.0,73,0.00,,SKC,0.00,VWS V14.01,2013-04-10 05:38:00,
2013-04-10 00:40:00,28.8,21.9,30.11,ESE,109,0.0,2.0,75,0.00,,SKC,0.00,VWS V14.01,2013-04-10 05:40:00,
2013-04-10 00:43:00,28.7,21.1,30.07,ENE,66,3.0,3.0,73,0.00,,SKC,0.00,VWS V14.01,2013-04-10 05:43:00,
2013-04-10 00:45:00,28.8,21.9,30.11,ESE,107,2.0,3.0,75,0.00,,SKC,0.00,VWS V14.01,2013-04-10 05:45:00,
2013-04-10 00:48:00,28.7,21.1,30.08,East,83,1.0,3.0,73,0.00,,SKC,0.00,VWS V14.01,2013-04-10 05:48:00,
2013-04-10 00:50:00,28.8,21.6,30.11,East,85,2.0,2.0,74,0.00,,SKC,0.00,VWS V14.01,2013-04-10 05:50:00,
2013-04-10 00:53:00,28.7,21.1,30.08,ENE,72,2.0,3.0,73,0.00,,SKC,0.00,VWS V14.01,2013-04-10 05:53:00,
2013-04-10 00:55:00,28.8,21.9,30.11,ENE,75,2.0,2.0,75,0.00,,SKC,0.00,VWS V14.01,2013-04-10 05:55:00,
2013-04-10 00:58:00,28.7,21.5,30.08,ENE,74,2.0,2.0,74,0.00,,SKC,0.00,VWS V14.01,2013-04-10 05:58:00,
2013-04-10 01:00:00,28.9,22.0,30.11,East,87,0.0,3.0,75,0.00,,SKC,0.00,VWS V14.01,2013-04-10 06:00:00,
2013-04-10 01:03:00,28.7,21.1,30.10,ENE,69,1.0,2.0,73,0.00,,SKC,0.00,VWS V14.01,2013-04-10 06:03:00,
2013-04-10 01:05:00,28.8,21.9,30.11,NE,51,1.0,2.0,75,0.00,,SKC,0.00,VWS V14.01,2013-04-10 06:05:00,
2013-04-10 01:08:00,28.8,21.6,30.10,ENE,69,2.0,4.0,74,0.00,,SKC,0.00,VWS V14.01,2013-04-10 06:08:00,
2013-04-10 01:10:00,28.8,21.9,30.11,East,96,1.0,2.0,75,0.00,,SKC,0.00,VWS V14.01,2013-04-10 06:10:00,
2013-04-10 01:13:00,28.8,21.6,30.10,ENE,58,2.0,3.0,74,0.00,,SKC,0.00,VWS V14.01,2013-04-10 06:13:00,
2013-04-10 01:15:00,28.8,21.9,30.10,NE,48,1.0,2.0,75,0.00,,SKC,0.00,VWS V14.01,2013-04-10 06:15:00,
2013-04-10 01:18:00,28.8,21.9,30.11,SE,126,0.0,1.0,75,0.00,,SKC,0.00,VWS V14.01,2013-04-10 06:18:00,
2013-04-10 01:20:00,28.8,21.9,30.10,East,91,1.0,2.0,75,0.00,,SKC,0.00,VWS V14.01,2013-04-10 06:20:00,
2013-04-10 01:23:00,28.8,21.9,30.11,ENE,69,0.0,1.0,75,0.00,,SKC,0.00,VWS V14.01,2013-04-10 06:23:00,
2013-04-10 01:25:00,28.8,21.9,30.10,East,82,1.0,2.0,75,0.00,,SKC,0.00,VWS V14.01,2013-04-10 06:25:00,
2013-04-10 01:28:00,28.8,21.9,30.11,ENE,57,1.0,3.0,75,0.00,,SKC,0.00,VWS V14.01,2013-04-10 06:28:00,
2013-04-10 01:30:00,28.8,22.2,30.09,ESE,103,1.0,3.0,76,0.00,,SKC,0.00,VWS V14.01,2013-04-10 06:30:00,
2013-04-10 01:33:00,28.8,21.6,30.11,NE,49,1.0,2.0,74,0.00,,SKC,0.00,VWS V14.01,2013-04-10 06:33:00,
2013-04-10 01:35:00,28.8,21.9,30.09,NNE,26,2.0,5.0,75,0.00,,SKC,0.00,VWS V14.01,2013-04-10 06:35:00,
2013-04-10 01:38:00,28.8,21.6,30.11,ENE,61,0.0,2.0,74,0.00,,SKC,0.00,VWS V14.01,2013-04-10 06:38:00,
2013-04-10 01:40:00,28.8,21.9,30.09,ENE,70,3.0,4.0,75,0.00,,SKC,0.00,VWS V14.01,2013-04-10 06:40:00,
2013-04-10 01:43:00,28.8,21.9,30.11,East,92,0.0,0.0,75,0.00,,SKC,0.00,VWS V14.01,2013-04-10 06:43:00,
2013-04-10 01:45:00,28.8,21.9,30.08,NNE,28,2.0,4.0,75,0.00,,SKC,0.00,VWS V14.01,2013-04-10 06:45:00,
2013-04-10 01:48:00,28.8,21.9,30.11,East,91,0.0,2.0,75,0.00,,SKC,0.00,VWS V14.01,2013-04-10 06:48:00,
2013-04-10 01:50:00,28.8,22.2,30.08,ENE,59,3.0,3.0,76,0.00,,SKC,0.00,VWS V14.01,2013-04-10 06:50:00,
2013-04-10 01:53:00,28.8,21.6,30.11,ESE,111,0.0,2.0,74,0.00,,SKC,0.00,VWS V14.01,2013-04-10 06:53:00,
2013-04-10 01:55:00,28.8,21.9,30.08,NE,44,3.0,5.0,75,0.00,,SKC,0.00,VWS V14.01,2013-04-10 06:55:00,
2013-04-10 01:58:00,28.8,21.6,30.11,East,87,2.0,3.0,74,0.00,,SKC,0.00,VWS V14.01,2013-04-10 06:58:00,
2013-04-10 02:00:00,28.8,22.2,30.09,NE,39,1.0,4.0,76,0.00,,SKC,0.00,VWS V14.01,2013-04-10 07:00:00,
2013-04-10 02:03:00,28.9,22.0,30.11,East,88,0.0,1.0,75,0.00,,SKC,0.00,VWS V14.01,2013-04-10 07:03:00,
2013-04-10 02:05:00,28.8,22.2,30.09,NNE,32,6.0,6.0,76,0.00,,SKC,0.00,VWS V14.01,2013-04-10 07:05:00,
2013-04-10 02:08:00,28.8,21.9,30.11,East,86,1.0,2.0,75,0.00,,SKC,0.00,VWS V14.01,2013-04-10 07:08:00,
2013-04-10 02:10:00,28.8,22.2,30.09,East,90,3.0,6.0,76,0.00,,SKC,0.00,VWS V14.01,2013-04-10 07:10:00,
2013-04-10 02:13:00,28.8,21.6,30.11,East,95,1.0,2.0,74,0.00,,SKC,0.00,VWS V14.01,2013-04-10 07:13:00,
2013-04-10 02:15:00,28.7,22.1,30.08,NE,37,0.0,5.0,76,0.00,,SKC,0.00,VWS V14.01,2013-04-10 07:15:00,
2013-04-10 02:18:00,28.9,21.7,30.10,ESE,105,1.0,2.0,74,0.00,,SKC,0.00,VWS V14.01,2013-04-10 07:18:00,
2013-04-10 02:20:00,28.7,22.1,30.08,NE,34,2.0,2.0,76,0.00,,SKC,0.00,VWS V14.01,2013-04-10 07:20:00,
2013-04-10 02:23:00,28.8,21.9,30.10,NE,55,1.0,2.0,75,0.00,,SKC,0.00,VWS V14.01,2013-04-10 07:23:00,
2013-04-10 02:25:00,28.7,22.1,30.08,ENE,76,2.0,5.0,76,0.00,,SKC,0.00,VWS V14.01,2013-04-10 07:25:00,
2013-04-10 02:28:00,28.8,21.9,30.10,NE,34,0.0,3.0,75,0.00,,SKC,0.00,VWS V14.01,2013-04-10 07:28:00,
2013-04-10 02:30:00,28.7,22.1,30.08,ENE,73,1.0,3.0,76,0.00,,SKC,0.00,VWS V14.01,2013-04-10 07:30:00,
2013-04-10 02:33:00,28.8,22.2,30.09,East,81,2.0,2.0,76,0.00,,SKC,0.00,VWS V14.01,2013-04-10 07:33:00,
2013-04-10 02:35:00,28.7,22.4,30.08,NE,36,2.0,3.0,77,0.00,,SKC,0.00,VWS V14.01,2013-04-10 07:35:00,
2013-04-10 02:38:00,28.8,21.9,30.09,East,81,2.0,4.0,75,0.00,,SKC,0.00,VWS V14.01,2013-04-10 07:38:00,
2013-04-10 02:40:00,28.7,22.4,30.08,East,82,1.0,3.0,77,0.00,,SKC,0.00,VWS V14.01,2013-04-10 07:40:00,
2013-04-10 02:43:00,28.8,21.9,30.09,ENE,76,2.0,3.0,75,0.00,,SKC,0.00,VWS V14.01,2013-04-10 07:43:00,
2013-04-10 02:45:00,28.7,22.4,30.08,NE,41,2.0,4.0,77,0.00,,SKC,0.00,VWS V14.01,2013-04-10 07:45:00,
2013-04-10 02:48:00,28.8,21.9,30.08,NE,54,2.0,3.0,75,0.00,,SKC,0.00,VWS V14.01,2013-04-10 07:48:00,
2013-04-10 02:50:00,28.7,22.4,30.08,ENE,78,1.0,4.0,77,0.00,,SKC,0.00,VWS V14.01,2013-04-10 07:50:00,
2013-04-10 02:53:00,28.8,22.2,30.08,East,94,1.0,3.0,76,0.00,,SKC,0.00,VWS V14.01,2013-04-10 07:53:00,
2013-04-10 02:55:00,28.7,22.4,30.08,NE,34,1.0,6.0,77,0.00,,SKC,0.00,VWS V14.01,2013-04-10 07:55:00,
2013-04-10 02:58:00,28.8,21.9,30.08,NE,43,1.0,4.0,75,0.00,,SKC,0.00,VWS V14.01,2013-04-10 07:58:00,
2013-04-10 03:00:00,28.7,22.7,30.08,NNE,30,0.0,5.0,78,0.00,,SKC,0.00,VWS V14.01,2013-04-10 08:00:00,
2013-04-10 03:03:00,28.8,22.2,30.09,NE,44,2.0,3.0,76,0.00,,SKC,0.00,VWS V14.01,2013-04-10 08:03:00,
2013-04-10 03:05:00,28.6,22.3,30.08,NE,53,2.0,5.0,77,0.00,,SKC,0.00,VWS V14.01,2013-04-10 08:05:00,
2013-04-10 03:08:00,28.8,22.2,30.09,NNE,26,0.0,6.0,76,0.00,,SKC,0.00,VWS V14.01,2013-04-10 08:08:00,
2013-04-10 03:10:00,28.6,22.6,30.08,NE,40,2.0,3.0,78,0.00,,SKC,0.00,VWS V14.01,2013-04-10 08:10:00,
2013-04-10 03:13:00,28.7,21.8,30.09,ENE,74,2.0,4.0,75,0.00,,SKC,0.00,VWS V14.01,2013-04-10 08:13:00,
2013-04-10 03:15:00,28.6,22.6,30.05,ENE,59,3.0,6.0,78,0.00,,SKC,0.00,VWS V14.01,2013-04-10 08:15:00,
2013-04-10 03:18:00,28.7,22.1,30.08,NE,46,1.0,2.0,76,0.00,,SKC,0.00,VWS V14.01,2013-04-10 08:18:00,
2013-04-10 03:20:00,28.5,22.5,30.05,ENE,63,5.0,5.0,78,0.00,,SKC,0.00,VWS V14.01,2013-04-10 08:20:00,
2013-04-10 03:23:00,28.7,22.1,30.08,NE,40,2.0,3.0,76,0.00,,SKC,0.00,VWS V14.01,2013-04-10 08:23:00,
2013-04-10 03:25:00,28.5,22.8,30.05,ENE,71,1.0,5.0,79,0.00,,SKC,0.00,VWS V14.01,2013-04-10 08:25:00,
2013-04-10 03:29:00,28.7,22.1,30.08,NE,36,2.0,3.0,76,0.00,,SKC,0.00,VWS V14.01,2013-04-10 08:29:00,
2013-04-10 03:30:00,28.4,22.4,30.04,East,93,2.0,7.0,78,0.00,,SKC,0.00,VWS V14.01,2013-04-10 08:30:00,
2013-04-10 03:34:00,28.7,22.4,30.08,NNE,17,2.0,2.0,77,0.00,,SKC,0.00,VWS V14.01,2013-04-10 08:34:00,
2013-04-10 03:35:00,28.3,22.6,30.04,East,81,1.0,2.0,79,0.00,,SKC,0.00,VWS V14.01,2013-04-10 08:35:00,
2013-04-10 03:39:00,28.7,22.4,30.08,NW,314,1.0,2.0,77,0.00,,SKC,0.00,VWS V14.01,2013-04-10 08:39:00,
2013-04-10 03:40:00,28.3,22.6,30.04,NE,53,2.0,4.0,79,0.00,,SKC,0.00,VWS V14.01,2013-04-10 08:40:00,
2013-04-10 03:44:00,28.7,22.1,30.08,NE,51,3.0,4.0,76,0.00,,SKC,0.00,VWS V14.01,2013-04-10 08:44:00,
2013-04-10 03:45:00,28.2,22.5,30.02,East,101,2.0,5.0,79,0.00,,SKC,0.00,VWS V14.01,2013-04-10 08:45:00,
2013-04-10 03:49:00,28.7,22.4,30.08,NE,48,2.0,3.0,77,0.00,,SKC,0.00,VWS V14.01,2013-04-10 08:49:00,
2013-04-10 03:50:00,28.2,22.5,30.02,East,95,3.0,5.0,79,0.00,,SKC,0.00,VWS V14.01,2013-04-10 08:50:00,
2013-04-10 03:54:00,28.7,22.4,30.08,ENE,69,1.0,2.0,77,0.00,,SKC,0.00,VWS V14.01,2013-04-10 08:54:00,
2013-04-10 03:55:00,28.1,22.4,30.02,ENE,69,2.0,4.0,79,0.00,,SKC,0.00,VWS V14.01,2013-04-10 08:55:00,
2013-04-10 03:59:00,28.7,22.7,30.08,NE,52,2.0,5.0,78,0.00,,SKC,0.00,VWS V14.01,2013-04-10 08:59:00,
2013-04-10 04:00:00,28.1,22.4,30.00,NE,44,2.0,7.0,79,0.00,,SKC,0.00,VWS V14.01,2013-04-10 09:00:00,
2013-04-10 04:04:00,28.7,22.7,30.08,NNE,20,1.0,2.0,78,0.00,,SKC,0.00,VWS V14.01,2013-04-10 09:04:00,
2013-04-10 04:05:00,28.1,22.4,30.00,NNE,32,2.0,6.0,79,0.00,,SKC,0.00,VWS V14.01,2013-04-10 09:05:00,
2013-04-10 04:09:00,28.6,22.3,30.08,ENE,66,1.0,3.0,77,0.00,,SKC,0.00,VWS V14.01,2013-04-10 09:09:00,
2013-04-10 04:10:00,28.0,22.6,30.00,NE,36,4.0,5.0,80,0.00,,SKC,0.00,VWS V14.01,2013-04-10 09:10:00,
2013-04-10 04:14:00,28.6,22.6,30.08,NE,34,2.0,5.0,78,0.00,,SKC,0.00,VWS V14.01,2013-04-10 09:14:00,
2013-04-10 04:15:00,28.1,22.4,30.00,NE,51,1.0,5.0,79,0.00,,SKC,0.00,VWS V14.01,2013-04-10 09:15:00,
2013-04-10 04:19:00,28.5,22.5,30.05,ENE,65,2.0,5.0,78,0.00,,SKC,0.00,VWS V14.01,2013-04-10 09:19:00,
2013-04-10 04:20:00,28.1,22.4,30.00,East,81,3.0,8.0,79,0.00,,SKC,0.00,VWS V14.01,2013-04-10 09:20:00,
2013-04-10 04:24:00,28.5,22.8,30.05,NE,49,2.0,5.0,79,0.00,,SKC,0.00,VWS V14.01,2013-04-10 09:24:00,
2013-04-10 04:25:00,28.1,22.4,30.00,ENE,69,2.0,7.0,79,0.00,,SKC,0.00,VWS V14.01,2013-04-10 09:25:00,
2013-04-10 04:29:00,28.4,22.7,30.05,ENE,63,2.0,3.0,79,0.00,,SKC,0.00,VWS V14.01,2013-04-10 09:29:00,
2013-04-10 04:30:00,28.0,22.3,29.97,SE,137,1.0,9.0,79,0.00,,SKC,0.00,VWS V14.01,2013-04-10 09:30:00,
2013-04-10 04:34:00,28.4,22.4,30.04,East,81,1.0,2.0,78,0.00,,SKC,0.00,VWS V14.01,2013-04-10 09:34:00,
2013-04-10 04:35:00,28.0,22.3,29.97,NE,49,2.0,7.0,79,0.00,,SKC,0.00,VWS V14.01,2013-04-10 09:35:00,
2013-04-10 04:39:00,28.3,22.6,30.04,East,90,1.0,4.0,79,0.00,,SKC,0.00,VWS V14.01,2013-04-10 09:39:00,
2013-04-10 04:40:00,27.9,22.5,29.97,NE,47,4.0,5.0,80,0.00,,SKC,0.00,VWS V14.01,2013-04-10 09:40:00,
2013-04-10 04:44:00,28.2,22.2,30.04,NNE,20,5.0,5.0,78,0.00,,SKC,0.00,VWS V14.01,2013-04-10 09:44:00,
2013-04-10 04:45:00,27.9,22.2,29.99,ENE,59,4.0,11.0,79,0.00,,SKC,0.00,VWS V14.01,2013-04-10 09:45:00,
2013-04-10 04:49:00,28.2,22.5,30.02,ENE,63,2.0,4.0,79,0.00,,SKC,0.00,VWS V14.01,2013-04-10 09:49:00,
2013-04-10 04:50:00,28.0,22.3,29.99,NE,40,2.0,4.0,79,0.00,,SKC,0.00,VWS V14.01,2013-04-10 09:50:00,
2013-04-10 04:54:00,28.2,22.5,30.02,East,87,2.0,4.0,79,0.00,,SKC,0.00,VWS V14.01,2013-04-10 09:54:00,
2013-04-10 04:55:00,28.0,22.3,29.99,East,101,1.0,4.0,79,0.00,,SKC,0.00,VWS V14.01,2013-04-10 09:55:00,
2013-04-10 04:59:00,28.1,22.4,30.02,ENE,73,2.0,5.0,79,0.00,,SKC,0.00,VWS V14.01,2013-04-10 09:59:00,
2013-04-10 05:00:00,28.0,22.3,30.04,NNE,19,1.0,4.0,79,0.00,,SKC,0.00,VWS V14.01,2013-04-10 10:00:00,
2013-04-10 05:04:00,28.1,22.7,30.00,East,83,2.0,3.0,80,0.00,,SKC,0.00,VWS V14.01,2013-04-10 10:04:00,
2013-04-10 05:05:00,28.0,22.3,30.04,NE,47,0.0,2.0,79,0.00,,SKC,0.00,VWS V14.01,2013-04-10 10:05:00,
2013-04-10 05:09:00,28.0,22.3,30.00,ESE,110,2.0,5.0,79,0.00,,SKC,0.00,VWS V14.01,2013-04-10 10:09:00,
2013-04-10 05:10:00,27.9,22.5,30.04,WNW,297,0.0,3.0,80,0.00,,SKC,0.00,VWS V14.01,2013-04-10 10:10:00,
2013-04-10 05:14:00,28.0,22.3,30.00,East,93,2.0,5.0,79,0.00,,SKC,0.00,VWS V14.01,2013-04-10 10:14:00,
2013-04-10 05:15:00,27.9,22.5,30.07,ENE,65,1.0,2.0,80,0.00,,SKC,0.00,VWS V14.01,2013-04-10 10:15:00,
2013-04-10 05:19:00,28.1,22.4,30.00,NE,35,8.0,8.0,79,0.00,,SKC,0.00,VWS V14.01,2013-04-10 10:19:00,
2013-04-10 05:20:00,27.8,22.1,30.07,North,5,1.0,6.0,79,0.00,,SKC,0.00,VWS V14.01,2013-04-10 10:20:00,
2013-04-10 05:24:00,28.1,22.4,30.00,East,79,1.0,5.0,79,0.00,,SKC,0.00,VWS V14.01,2013-04-10 10:24:00,
2013-04-10 05:25:00,27.9,22.2,30.07,NE,46,0.0,3.0,79,0.00,,SKC,0.00,VWS V14.01,2013-04-10 10:25:00,
2013-04-10 05:29:00,28.1,22.4,30.00,ENE,71,2.0,9.0,79,0.00,,SKC,0.00,VWS V14.01,2013-04-10 10:29:00,
2013-04-10 05:30:00,27.8,22.4,30.07,NE,35,0.0,2.0,80,0.00,,SKC,0.00,VWS V14.01,2013-04-10 10:30:00,
2013-04-10 05:34:00,28.0,22.3,29.97,SE,125,4.0,7.0,79,0.00,,SKC,0.00,VWS V14.01,2013-04-10 10:34:00,
2013-04-10 05:35:00,27.8,22.4,30.07,NE,51,0.0,3.0,80,0.00,,SKC,0.00,VWS V14.01,2013-04-10 10:35:00,
2013-04-10 05:39:00,28.0,22.3,29.97,ENE,65,1.0,4.0,79,0.00,,SKC,0.00,VWS V14.01,2013-04-10 10:39:00,
2013-04-10 05:40:00,27.8,22.4,30.07,NNE,32,1.0,4.0,80,0.00,,SKC,0.00,VWS V14.01,2013-04-10 10:40:00,
2013-04-10 05:44:00,27.9,22.2,29.97,NNE,29,6.0,11.0,79,0.00,,SKC,0.00,VWS V14.01,2013-04-10 10:44:00,
2013-04-10 05:45:00,27.9,22.8,30.08,ENE,75,0.0,4.0,81,0.00,,SKC,0.00,VWS V14.01,2013-04-10 10:45:00,
2013-04-10 05:49:00,27.9,22.5,29.99,East,88,2.0,4.0,80,0.00,,SKC,0.00,VWS V14.01,2013-04-10 10:49:00,
2013-04-10 05:50:00,27.9,22.5,30.08,ENE,69,1.0,2.0,80,0.00,,SKC,0.00,VWS V14.01,2013-04-10 10:50:00,
2013-04-10 05:54:00,27.9,22.2,29.99,NE,53,3.0,4.0,79,0.00,,SKC,0.00,VWS V14.01,2013-04-10 10:54:00,
2013-04-10 05:55:00,27.9,22.5,30.08,ENE,72,0.0,2.0,80,0.00,,SKC,0.00,VWS V14.01,2013-04-10 10:55:00,
2013-04-10 05:59:00,27.9,22.2,29.99,NNE,13,1.0,2.0,79,0.00,,SKC,0.00,VWS V14.01,2013-04-10 10:59:00,
2013-04-10 06:00:00,28.0,22.6,30.09,NE,49,0.0,2.0,80,0.00,,SKC,0.00,VWS V14.01,2013-04-10 11:00:00,
2013-04-10 06:04:00,28.0,22.3,30.04,NNE,20,1.0,2.0,79,0.00,,SKC,0.00,VWS V14.01,2013-04-10 11:04:00,
2013-04-10 06:05:00,28.0,22.6,30.09,NNE,27,0.0,2.0,80,0.00,,SKC,0.00,VWS V14.01,2013-04-10 11:05:00,
2013-04-10 06:09:00,28.0,22.3,30.04,WNW,296,0.0,3.0,79,0.00,,SKC,0.00,VWS V14.01,2013-04-10 11:09:00,
2013-04-10 06:10:00,28.1,22.7,30.09,WNW,290,0.0,2.0,80,0.00,,SKC,0.00,VWS V14.01,2013-04-10 11:10:00,
2013-04-10 06:14:00,27.9,22.5,30.04,NNE,27,0.0,2.0,80,0.00,,SKC,0.00,VWS V14.01,2013-04-10 11:14:00,
2013-04-10 06:15:00,28.1,22.7,30.11,West,271,0.0,1.0,80,0.00,,SKC,0.00,VWS V14.01,2013-04-10 11:15:00,
2013-04-10 06:19:00,27.9,22.5,30.07,NNE,20,0.0,1.0,80,0.00,,SKC,0.00,VWS V14.01,2013-04-10 11:19:00,
2013-04-10 06:20:00,28.2,23.1,30.11,NNW,328,0.0,1.0,81,0.00,,SKC,0.00,VWS V14.01,2013-04-10 11:20:00,
2013-04-10 06:24:00,27.9,22.2,30.07,NE,49,1.0,3.0,79,0.00,,SKC,0.00,VWS V14.01,2013-04-10 11:24:00,
2013-04-10 06:25:00,28.3,22.9,30.11,NE,50,0.0,2.0,80,0.00,,SKC,0.00,VWS V14.01,2013-04-10 11:25:00,
2013-04-10 06:29:00,27.9,22.5,30.07,NE,35,0.0,2.0,80,0.00,,SKC,0.00,VWS V14.01,2013-04-10 11:29:00,
2013-04-10 06:30:00,28.5,22.8,30.11,ENE,64,0.0,2.0,79,0.00,,SKC,0.00,VWS V14.01,2013-04-10 11:30:00,
2013-04-10 06:34:00,27.8,22.4,30.07,ENE,73,0.0,3.0,80,0.00,,SKC,0.00,VWS V14.01,2013-04-10 11:34:00,
2013-04-10 06:35:00,28.6,22.9,30.11,NNE,15,1.0,2.0,79,0.00,,SKC,0.00,VWS V14.01,2013-04-10 11:35:00,
2013-04-10 06:39:00,27.8,22.4,30.07,ENE,63,0.0,4.0,80,0.00,,SKC,0.00,VWS V14.01,2013-04-10 11:39:00,
2013-04-10 06:40:00,28.7,23.3,30.11,NNW,335,0.0,5.0,80,0.00,,SKC,0.00,VWS V14.01,2013-04-10 11:40:00,
2013-04-10 06:44:00,27.8,22.4,30.07,ENE,74,4.0,4.0,80,0.00,,SKC,0.00,VWS V14.01,2013-04-10 11:44:00,
2013-04-10 06:45:00,28.8,23.1,30.08,NE,44,3.0,4.0,79,0.00,,SKC,0.00,VWS V14.01,2013-04-10 11:45:00,
2013-04-10 06:49:00,27.9,22.5,30.08,NE,35,0.0,2.0,80,0.00,,SKC,0.00,VWS V14.01,2013-04-10 11:49:00,
2013-04-10 06:50:00,28.7,23.0,30.08,ENE,63,3.0,5.0,79,0.00,,SKC,0.00,VWS V14.01,2013-04-10 11:50:00,
2013-04-10 06:54:00,27.9,22.5,30.08,East,81,1.0,2.0,80,0.00,,SKC,0.00,VWS V14.01,2013-04-10 11:54:00,
2013-04-10 06:55:00,28.7,22.7,30.08,NNE,13,2.0,5.0,78,0.00,,SKC,0.00,VWS V14.01,2013-04-10 11:55:00,
2013-04-10 06:59:00,28.0,22.6,30.08,ENE,57,0.0,1.0,80,0.00,,SKC,0.00,VWS V14.01,2013-04-10 11:59:00,
2013-04-10 07:00:00,28.7,23.0,30.04,NE,43,3.0,5.0,79,0.00,,SKC,0.00,VWS V14.01,2013-04-10 12:00:00,
2013-04-10 07:04:00,28.0,22.6,30.09,North,5,1.0,1.0,80,0.00,,SKC,0.00,VWS V14.01,2013-04-10 12:04:00,
2013-04-10 07:05:00,28.7,23.0,30.04,ENE,66,7.0,9.0,79,0.00,,SKC,0.00,VWS V14.01,2013-04-10 12:05:00,
2013-04-10 07:09:00,28.0,22.6,30.09,WNW,290,0.0,2.0,80,0.00,,SKC,0.00,VWS V14.01,2013-04-10 12:09:00,
2013-04-10 07:10:00,28.6,22.9,30.04,NNW,338,3.0,11.0,79,0.00,,SKC,0.00,VWS V14.01,2013-04-10 12:10:00,
2013-04-10 07:14:00,28.1,22.7,30.09,NNE,19,0.0,1.0,80,0.00,,SKC,0.00,VWS V14.01,2013-04-10 12:14:00,
2013-04-10 07:15:00,28.6,22.6,29.99,East,95,5.0,8.0,78,0.00,,SKC,0.00,VWS V14.01,2013-04-10 12:15:00,
2013-04-10 07:19:00,28.2,23.1,30.11,NW,311,0.0,1.0,81,0.00,,SKC,0.00,VWS V14.01,2013-04-10 12:19:00,
2013-04-10 07:20:00,28.6,22.6,29.99,NNE,28,5.0,11.0,78,0.00,,SKC,0.00,VWS V14.01,2013-04-10 12:20:00,
2013-04-10 07:24:00,28.3,22.9,30.11,NNW,348,0.0,1.0,80,0.00,,SKC,0.00,VWS V14.01,2013-04-10 12:24:00,
2013-04-10 07:25:00,28.8,22.8,29.99,ENE,63,2.0,11.0,78,0.00,,SKC,0.00,VWS V14.01,2013-04-10 12:25:00,
2013-04-10 07:29:00,28.4,22.7,30.11,NE,51,0.0,2.0,79,0.00,,SKC,0.00,VWS V14.01,2013-04-10 12:29:00,
2013-04-10 07:30:00,29.1,22.8,29.96,ENE,57,5.0,9.0,77,0.00,,SKC,0.00,VWS V14.01,2013-04-10 12:30:00,
2013-04-10 07:34:00,28.5,22.8,30.11,ENE,71,0.0,2.0,79,0.00,,SKC,0.00,VWS V14.01,2013-04-10 12:34:00,
2013-04-10 07:35:00,29.4,23.1,29.96,East,80,7.0,7.0,77,0.00,,SKC,0.00,VWS V14.01,2013-04-10 12:35:00,
2013-04-10 07:39:00,28.6,22.9,30.11,NNE,30,1.0,5.0,79,0.00,,SKC,0.00,VWS V14.01,2013-04-10 12:39:00,
2013-04-10 07:40:00,29.8,22.9,29.96,East,81,5.0,8.0,75,0.00,,SKC,0.00,VWS V14.01,2013-04-10 12:40:00,
2013-04-10 07:44:00,28.8,23.1,30.11,NNE,28,1.0,2.0,79,0.00,,SKC,0.00,VWS V14.01,2013-04-10 12:44:00,
2013-04-10 07:45:00,30.2,23.2,29.99,NNE,20,3.0,8.0,75,0.00,,SKC,0.00,VWS V14.01,2013-04-10 12:45:00,
2013-04-10 07:49:00,28.8,22.8,30.08,ENE,59,2.0,5.0,78,0.00,,SKC,0.00,VWS V14.01,2013-04-10 12:49:00,
2013-04-10 07:50:00,30.6,22.7,29.99,ENE,78,4.0,9.0,72,0.00,,SKC,0.00,VWS V14.01,2013-04-10 12:50:00,
2013-04-10 07:54:00,28.7,22.7,30.08,NE,42,2.0,4.0,78,0.00,,SKC,0.00,VWS V14.01,2013-04-10 12:54:00,
2013-04-10 07:55:00,30.9,22.6,29.99,ENE,66,5.0,9.0,71,0.00,,SKC,0.00,VWS V14.01,2013-04-10 12:55:00,
2013-04-10 07:59:00,28.7,23.0,30.08,NE,54,2.0,5.0,79,0.00,,SKC,0.00,VWS V14.01,2013-04-10 12:59:00,
2013-04-10 08:00:00,31.1,22.8,30.01,NE,56,4.0,6.0,71,0.00,,SKC,0.00,VWS V14.01,2013-04-10 13:00:00,
2013-04-10 08:04:00,28.7,22.7,30.04,ENE,71,1.0,7.0,78,0.00,,SKC,0.00,VWS V14.01,2013-04-10 13:04:00,
2013-04-10 08:05:00,31.3,22.7,30.01,ENE,61,3.0,8.0,70,0.00,,SKC,0.00,VWS V14.01,2013-04-10 13:05:00,
2013-04-10 08:09:00,28.7,22.7,30.04,ENE,64,7.0,11.0,78,0.00,,SKC,0.00,VWS V14.01,2013-04-10 13:09:00,
2013-04-10 08:10:00,31.3,22.7,30.01,ENE,73,2.0,9.0,70,0.00,,SKC,0.00,VWS V14.01,2013-04-10 13:10:00,
2013-04-10 08:14:00,28.7,23.0,30.04,East,86,3.0,7.0,79,0.00,,SKC,0.00,VWS V14.01,2013-04-10 13:14:00,
2013-04-10 08:15:00,31.7,23.4,30.02,NNE,17,3.0,6.0,71,0.00,,SKC,0.00,VWS V14.01,2013-04-10 13:15:00,
2013-04-10 08:19:00,28.6,22.9,29.99,East,97,7.0,7.0,79,0.00,,SKC,0.00,VWS V14.01,2013-04-10 13:19:00,
2013-04-10 08:20:00,31.8,22.8,30.02,ENE,63,2.0,7.0,69,0.00,,SKC,0.00,VWS V14.01,2013-04-10 13:20:00,
2013-04-10 08:24:00,28.6,22.6,29.99,East,84,1.0,11.0,78,0.00,,SKC,0.00,VWS V14.01,2013-04-10 13:24:00,
2013-04-10 08:25:00,32.0,23.0,30.02,East,95,2.0,8.0,69,0.00,,SKC,0.00,VWS V14.01,2013-04-10 13:25:00,
2013-04-10 08:29:00,28.9,22.9,29.99,East,81,5.0,8.0,78,0.00,,SKC,0.00,VWS V14.01,2013-04-10 13:29:00,
2013-04-10 08:30:00,32.0,22.6,30.04,WSW,248,2.0,6.0,68,0.00,,SKC,0.00,VWS V14.01,2013-04-10 13:30:00,
2013-04-10 08:34:00,29.2,22.9,29.96,ENE,74,3.0,7.0,77,0.00,,SKC,0.00,VWS V14.01,2013-04-10 13:34:00,
2013-04-10 08:35:00,32.1,22.8,30.04,NE,42,3.0,7.0,68,0.00,,SKC,0.00,VWS V14.01,2013-04-10 13:35:00,
2013-04-10 08:39:00,29.6,23.0,29.96,NE,49,4.0,8.0,76,0.00,,SKC,0.00,VWS V14.01,2013-04-10 13:39:00,
2013-04-10 08:40:00,32.3,22.9,30.04,ENE,63,3.0,7.0,68,0.00,,SKC,0.00,VWS V14.01,2013-04-10 13:40:00,
2013-04-10 08:44:00,30.0,23.0,29.96,SE,141,4.0,8.0,75,0.00,,SKC,0.00,VWS V14.01,2013-04-10 13:44:00,
2013-04-10 08:45:00,32.3,22.6,30.05,ENE,59,2.0,7.0,67,0.00,,SKC,0.00,VWS V14.01,2013-04-10 13:45:00,
2013-04-10 08:49:00,30.5,23.2,29.99,NE,35,4.0,5.0,74,0.00,,SKC,0.00,VWS V14.01,2013-04-10 13:49:00,
2013-04-10 08:50:00,32.4,22.7,30.05,NE,40,4.0,8.0,67,0.00,,SKC,0.00,VWS V14.01,2013-04-10 13:50:00,
2013-04-10 08:54:00,30.7,22.8,29.99,NE,44,1.0,8.0,72,0.00,,SKC,0.00,VWS V14.01,2013-04-10 13:54:00,
2013-04-10 08:55:00,32.7,23.3,30.05,ENE,74,1.0,4.0,68,0.00,,SKC,0.00,VWS V14.01,2013-04-10 13:55:00,
2013-04-10 08:59:00,30.9,22.6,29.99,NE,48,3.0,5.0,71,0.00,,SKC,0.00,VWS V14.01,2013-04-10 13:59:00,
2013-04-10 09:00:00,33.0,23.2,30.07,ENE,59,4.0,6.0,67,0.00,,SKC,0.00,VWS V14.01,2013-04-10 14:00:00,
2013-04-10 09:04:00,31.2,22.9,30.01,NE,46,4.0,7.0,71,0.00,,SKC,0.00,VWS V14.01,2013-04-10 14:04:00,
2013-04-10 09:05:00,33.1,23.4,30.07,ENE,71,1.0,5.0,67,0.00,,SKC,0.00,VWS V14.01,2013-04-10 14:05:00,
2013-04-10 09:09:00,31.3,22.7,30.01,ENE,73,7.0,9.0,70,0.00,,SKC,0.00,VWS V14.01,2013-04-10 14:09:00,
2013-04-10 09:10:00,33.3,23.2,30.07,NNE,24,1.0,3.0,66,0.00,,SKC,0.00,VWS V14.01,2013-04-10 14:10:00,
2013-04-10 09:14:00,31.4,22.8,30.01,ENE,71,1.0,3.0,70,0.00,,SKC,0.00,VWS V14.01,2013-04-10 14:14:00,
2013-04-10 09:15:00,33.5,22.6,30.07,NE,53,4.0,7.0,64,0.00,,SKC,0.00,VWS V14.01,2013-04-10 14:15:00,
2013-04-10 09:19:00,31.8,22.8,30.02,NE,39,3.0,7.0,69,0.00,,SKC,0.00,VWS V14.01,2013-04-10 14:19:00,
2013-04-10 09:20:00,33.7,22.8,30.07,ENE,68,2.0,7.0,64,0.00,,SKC,0.00,VWS V14.01,2013-04-10 14:20:00,
2013-04-10 09:24:00,32.0,23.3,30.02,East,88,3.0,3.0,70,0.00,,SKC,0.00,VWS V14.01,2013-04-10 14:24:00,
2013-04-10 09:25:00,33.9,23.0,30.07,NE,34,2.0,6.0,64,0.00,,SKC,0.00,VWS V14.01,2013-04-10 14:25:00,
2013-04-10 09:30:00,32.1,23.1,30.02,NE,54,5.0,6.0,69,0.00,,SKC,0.00,VWS V14.01,2013-04-10 14:30:00,
2013-04-10 09:35:00,32.0,23.0,30.04,NNW,348,0.0,5.0,69,0.00,,SKC,0.00,VWS V14.01,2013-04-10 14:35:00,
2013-04-10 09:40:00,32.1,22.8,30.04,NNE,15,0.0,5.0,68,0.00,,SKC,0.00,VWS V14.01,2013-04-10 14:40:00,
2013-04-10 09:45:00,32.3,23.3,30.04,ENE,78,3.0,7.0,69,0.00,,SKC,0.00,VWS V14.01,2013-04-10 14:45:00,
2013-04-10 09:50:00,32.4,23.0,30.05,NNE,12,1.0,5.0,68,0.00,,SKC,0.00,VWS V14.01,2013-04-10 14:50:00,
2013-04-10 09:55:00,32.5,23.1,30.05,NE,45,0.0,4.0,68,0.00,,SKC,0.00,VWS V14.01,2013-04-10 14:55:00,
2013-04-10 10:00:00,32.9,23.5,30.05,NE,49,1.0,2.0,68,0.00,,SKC,0.00,VWS V14.01,2013-04-10 15:00:00,
2013-04-10 10:05:00,33.0,23.2,30.07,NNE,31,2.0,5.0,67,0.00,,SKC,0.00,VWS V14.01,2013-04-10 15:05:00,
2013-04-10 10:10:00,33.2,23.1,30.07,NE,47,2.0,3.0,66,0.00,,SKC,0.00,VWS V14.01,2013-04-10 15:10:00,
2013-04-10 10:15:00,33.5,23.4,30.07,NE,51,2.0,5.0,66,0.00,,SKC,0.00,VWS V14.01,2013-04-10 15:15:00,
2013-04-10 10:20:00,33.6,22.7,30.07,ENE,61,2.0,7.0,64,0.00,,SKC,0.00,VWS V14.01,2013-04-10 15:20:00,
2013-04-10 10:25:00,33.9,23.8,30.07,North,5,4.0,5.0,66,0.00,,SKC,0.00,VWS V14.01,2013-04-10 15:25:00,
2013-04-10 10:30:00,33.9,23.0,30.07,East,80,3.0,6.0,64,0.00,,SKC,0.00,VWS V14.01,2013-04-10 15:30:00,
2013-04-10 10:35:00,34.3,23.4,30.08,NNE,17,2.0,8.0,64,0.00,,SKC,0.00,VWS V14.01,2013-04-10 15:35:00,
2013-04-10 10:40:00,34.4,23.1,30.08,East,93,7.0,7.0,63,0.00,,SKC,0.00,VWS V14.01,2013-04-10 15:40:00,
2013-04-10 10:45:00,34.7,23.4,30.08,NE,40,1.0,2.0,63,0.00,,SKC,0.00,VWS V14.01,2013-04-10 15:45:00,
2013-04-10 10:50:00,35.3,23.2,30.07,NE,39,5.0,7.0,61,0.00,,SKC,0.00,VWS V14.01,2013-04-10 15:50:00,
2013-04-10 10:55:00,35.3,22.8,30.07,NE,45,5.0,6.0,60,0.00,,SKC,0.00,VWS V14.01,2013-04-10 15:55:00,
2013-04-10 11:00:00,35.6,23.1,30.07,East,97,1.0,5.0,60,0.00,,SKC,0.00,VWS V14.01,2013-04-10 16:00:00,
2013-04-10 11:05:00,35.9,22.6,30.05,ENE,74,2.0,6.0,58,0.00,,SKC,0.00,VWS V14.01,2013-04-10 16:05:00,
2013-04-10 11:10:00,36.7,23.7,30.05,ENE,61,1.0,6.0,59,0.00,,SKC,0.00,VWS V14.01,2013-04-10 16:10:00,
2013-04-10 11:15:00,37.4,23.1,30.05,NE,46,4.0,14.0,56,0.00,,SKC,0.00,VWS V14.01,2013-04-10 16:15:00,
2013-04-10 11:20:00,38.2,23.0,30.04,NNE,13,4.0,8.0,54,0.00,,SKC,0.00,VWS V14.01,2013-04-10 16:20:00,
2013-04-10 11:25:00,38.2,22.6,30.04,ENE,70,4.0,7.0,53,0.00,,SKC,0.00,VWS V14.01,2013-04-10 16:25:00,
2013-04-10 11:30:00,38.2,23.0,30.04,East,92,2.0,7.0,54,0.00,,SKC,0.00,VWS V14.01,2013-04-10 16:30:00,
2013-04-10 11:35:00,38.5,22.4,30.05,ENE,63,3.0,9.0,52,0.00,,SKC,0.00,VWS V14.01,2013-04-10 16:35:00,
2013-04-10 11:40:00,38.5,22.0,30.05,ESE,105,3.0,9.0,51,0.00,,SKC,0.00,VWS V14.01,2013-04-10 16:40:00,
2013-04-10 11:45:00,39.1,22.0,30.05,NE,49,6.0,8.0,50,0.00,,SKC,0.00,VWS V14.01,2013-04-10 16:45:00,
2013-04-10 11:50:00,39.1,21.6,30.04,NE,39,5.0,8.0,49,0.00,,SKC,0.00,VWS V14.01,2013-04-10 16:50:00,
2013-04-10 11:55:00,38.9,21.9,30.04,East,94,2.0,6.0,50,0.00,,SKC,0.00,VWS V14.01,2013-04-10 16:55:00,
2013-04-10 12:00:00,39.2,21.2,30.04,ESE,104,2.0,8.0,48,0.00,,SKC,0.00,VWS V14.01,2013-04-10 17:00:00,
2013-04-10 12:05:00,39.7,21.6,30.03,ENE,59,3.0,9.0,48,0.00,,SKC,0.00,VWS V14.01,2013-04-10 17:05:00,
2013-04-10 12:10:00,40.2,21.6,30.03,SE,128,5.0,8.0,47,0.00,,SKC,0.00,VWS V14.01,2013-04-10 17:10:00,
2013-04-10 12:15:00,40.3,21.7,30.03,NE,50,3.0,8.0,47,0.00,,SKC,0.00,VWS V14.01,2013-04-10 17:15:00,
2013-04-10 12:20:00,40.5,21.4,30.04,East,99,1.0,6.0,46,0.00,,SKC,0.00,VWS V14.01,2013-04-10 17:20:00,
2013-04-10 12:25:00,40.8,22.6,30.04,ENE,78,2.0,7.0,48,0.00,,SKC,0.00,VWS V14.01,2013-04-10 17:25:00,
2013-04-10 12:30:00,41.0,22.3,30.04,East,92,6.0,7.0,47,0.00,,SKC,0.00,VWS V14.01,2013-04-10 17:30:00,
2013-04-10 12:35:00,40.4,21.3,30.06,ESE,107,3.0,6.0,46,0.00,,SKC,0.00,VWS V14.01,2013-04-10 17:35:00,
2013-04-10 12:40:00,40.0,20.9,30.06,East,94,2.0,7.0,46,0.00,,SKC,0.00,VWS V14.01,2013-04-10 17:40:00,
2013-04-10 12:45:00,39.9,21.3,30.06,ESE,117,4.0,7.0,47,0.00,,SKC,0.00,VWS V14.01,2013-04-10 17:45:00,
2013-04-10 12:50:00,39.9,20.3,30.04,NE,39,1.0,7.0,45,0.00,,SKC,0.00,VWS V14.01,2013-04-10 17:50:00,
2013-04-10 12:51:00,39.7,21.1,30.07,ENE,76,7.0,8.0,47,0.00,,SKC,0.00,VWS V14.01,2013-04-10 17:51:00,
2013-04-10 12:55:00,40.0,20.9,30.04,NE,39,0.0,9.0,46,0.00,,SKC,0.00,VWS V14.01,2013-04-10 17:55:00,
2013-04-10 12:57:00,39.6,21.0,30.07,East,85,1.0,7.0,47,0.00,,SKC,0.00,VWS V14.01,2013-04-10 17:57:00,
2013-04-10 13:00:00,40.3,21.2,30.03,NE,45,2.0,5.0,46,0.00,,SKC,0.00,VWS V14.01,2013-04-10 18:00:00,
2013-04-10 13:02:00,39.6,21.0,30.07,ENE,63,2.0,4.0,47,0.00,,SKC,0.00,VWS V14.01,2013-04-10 18:02:00,
2013-04-10 13:05:00,40.6,20.9,30.03,NNE,23,5.0,9.0,45,0.00,,SKC,0.00,VWS V14.01,2013-04-10 18:05:00,
2013-04-10 13:07:00,39.7,21.1,30.07,ENE,71,3.0,7.0,47,0.00,,SKC,0.00,VWS V14.01,2013-04-10 18:07:00,
2013-04-10 13:10:00,40.7,21.0,30.03,East,84,1.0,6.0,45,0.00,,SKC,0.00,VWS V14.01,2013-04-10 18:10:00,
2013-04-10 13:12:00,40.0,20.4,30.07,ENE,71,3.0,5.0,45,0.00,,SKC,0.00,VWS V14.01,2013-04-10 18:12:00,
2013-04-10 13:15:00,40.8,19.5,30.03,ENE,57,4.0,9.0,42,0.00,,SKC,0.00,VWS V14.01,2013-04-10 18:15:00,
2013-04-10 13:17:00,40.0,20.9,30.07,NNE,28,1.0,5.0,46,0.00,,SKC,0.00,VWS V14.01,2013-04-10 18:17:00,
2013-04-10 13:20:00,40.7,19.4,30.03,ENE,74,7.0,7.0,42,0.00,,SKC,0.00,VWS V14.01,2013-04-10 18:20:00,
2013-04-10 13:22:00,40.1,22.0,30.07,NNE,13,2.0,3.0,48,0.00,,SKC,0.00,VWS V14.01,2013-04-10 18:22:00,
2013-04-10 13:25:00,40.8,21.1,30.03,NE,41,4.0,7.0,45,0.00,,SKC,0.00,VWS V14.01,2013-04-10 18:25:00,
2013-04-10 13:27:00,40.1,21.5,30.07,ENE,74,1.0,6.0,47,0.00,,SKC,0.00,VWS V14.01,2013-04-10 18:27:00,
2013-04-10 13:30:00,41.0,20.2,30.03,ENE,67,2.0,8.0,43,0.00,,SKC,0.00,VWS V14.01,2013-04-10 18:30:00,
2013-04-10 13:32:00,40.1,22.0,30.06,NNW,340,3.0,6.0,48,0.00,,SKC,0.00,VWS V14.01,2013-04-10 18:32:00,
2013-04-10 13:35:00,41.0,20.2,30.03,East,84,2.0,8.0,43,0.00,,SKC,0.00,VWS V14.01,2013-04-10 18:35:00,
2013-04-10 13:37:00,39.9,21.3,30.06,East,82,1.0,10.0,47,0.00,,SKC,0.00,VWS V14.01,2013-04-10 18:37:00,
2013-04-10 13:40:00,41.2,21.0,30.03,ENE,74,4.0,6.0,44,0.00,,SKC,0.00,VWS V14.01,2013-04-10 18:40:00,
2013-04-10 13:42:00,40.0,21.9,30.06,ENE,76,1.0,3.0,48,0.00,,SKC,0.00,VWS V14.01,2013-04-10 18:42:00,
2013-04-10 13:45:00,41.3,21.0,30.03,East,80,2.0,7.0,44,0.00,,SKC,0.00,VWS V14.01,2013-04-10 18:45:00,
2013-04-10 13:47:00,40.0,20.9,30.04,NE,53,1.0,7.0,46,0.00,,SKC,0.00,VWS V14.01,2013-04-10 18:47:00,
2013-04-10 13:50:00,41.3,21.6,30.03,East,80,2.0,8.0,45,0.00,,SKC,0.00,VWS V14.01,2013-04-10 18:50:00,
2013-04-10 13:52:00,39.9,20.3,30.04,NE,39,1.0,7.0,45,0.00,,SKC,0.00,VWS V14.01,2013-04-10 18:52:00,
2013-04-10 13:55:00,41.3,20.5,30.03,NE,51,4.0,7.0,43,0.00,,SKC,0.00,VWS V14.01,2013-04-10 18:55:00,
2013-04-10 13:57:00,40.0,20.9,30.04,NE,39,0.0,9.0,46,0.00,,SKC,0.00,VWS V14.01,2013-04-10 18:57:00,
2013-04-10 14:00:00,41.2,20.4,30.02,ESE,109,3.0,6.0,43,0.00,,SKC,0.00,VWS V14.01,2013-04-10 19:00:00,
2013-04-10 14:02:00,40.3,21.2,30.03,NE,34,2.0,5.0,46,0.00,,SKC,0.00,VWS V14.01,2013-04-10 19:02:00,
2013-04-10 14:05:00,40.9,19.6,30.02,East,86,3.0,8.0,42,0.00,,SKC,0.00,VWS V14.01,2013-04-10 19:05:00,
2013-04-10 14:07:00,40.6,20.9,30.03,NNE,15,2.0,5.0,45,0.00,,SKC,0.00,VWS V14.01,2013-04-10 19:07:00,
2013-04-10 14:10:00,40.9,20.1,30.02,ESE,111,3.0,6.0,43,0.00,,SKC,0.00,VWS V14.01,2013-04-10 19:10:00,
2013-04-10 14:12:00,40.8,21.1,30.03,East,93,5.0,5.0,45,0.00,,SKC,0.00,VWS V14.01,2013-04-10 19:12:00,
2013-04-10 14:15:00,40.8,19.5,30.02,ENE,78,1.0,7.0,42,0.00,,SKC,0.00,VWS V14.01,2013-04-10 19:15:00,
2013-04-10 14:17:00,40.7,19.4,30.03,ENE,76,3.0,5.0,42,0.00,,SKC,0.00,VWS V14.01,2013-04-10 19:17:00,
2013-04-10 14:20:00,40.8,18.9,30.02,NNE,21,3.0,5.0,41,0.00,,SKC,0.00,VWS V14.01,2013-04-10 19:20:00,
2013-04-10 14:22:00,40.7,19.4,30.03,ENE,58,3.0,7.0,42,0.00,,SKC,0.00,VWS V14.01,2013-04-10 19:22:00,
2013-04-10 14:25:00,41.1,19.8,30.02,ENE,59,2.0,6.0,42,0.00,,SKC,0.00,VWS V14.01,2013-04-10 19:25:00,
2013-04-10 14:27:00,40.8,21.1,30.03,NE,45,1.0,4.0,45,0.00,,SKC,0.00,VWS V14.01,2013-04-10 19:27:00,
2013-04-10 14:30:00,41.4,19.5,30.02,East,86,1.0,5.0,41,0.00,,SKC,0.00,VWS V14.01,2013-04-10 19:30:00,
2013-04-10 14:32:00,41.0,20.2,30.03,NNE,24,3.0,4.0,43,0.00,,SKC,0.00,VWS V14.01,2013-04-10 19:32:00,
2013-04-10 14:35:00,41.4,18.9,30.02,ENE,63,2.0,9.0,40,0.00,,SKC,0.00,VWS V14.01,2013-04-10 19:35:00,
2013-04-10 14:37:00,41.0,20.2,30.03,East,82,2.0,2.0,43,0.00,,SKC,0.00,VWS V14.01,2013-04-10 19:37:00,
2013-04-10 14:40:00,41.2,19.3,30.02,ENE,57,2.0,7.0,41,0.00,,SKC,0.00,VWS V14.01,2013-04-10 19:40:00,
2013-04-10 14:42:00,41.2,20.4,30.03,ENE,70,4.0,5.0,43,0.00,,SKC,0.00,VWS V14.01,2013-04-10 19:42:00,
2013-04-10 14:45:00,41.2,18.7,30.02,ENE,77,2.0,7.0,40,0.00,,SKC,0.00,VWS V14.01,2013-04-10 19:45:00,
2013-04-10 14:48:00,41.3,21.0,30.03,NNE,31,2.0,3.0,44,0.00,,SKC,0.00,VWS V14.01,2013-04-10 19:48:00,
2013-04-10 14:50:00,41.1,18.6,30.02,ENE,78,2.0,6.0,40,0.00,,SKC,0.00,VWS V14.01,2013-04-10 19:50:00,
2013-04-10 14:53:00,41.3,21.6,30.03,ENE,65,2.0,2.0,45,0.00,,SKC,0.00,VWS V14.01,2013-04-10 19:53:00,
2013-04-10 14:55:00,40.9,19.6,30.02,East,97,2.0,7.0,42,0.00,,SKC,0.00,VWS V14.01,2013-04-10 19:55:00,
2013-04-10 14:58:00,41.2,19.3,30.03,East,79,2.0,4.0,41,0.00,,SKC,0.00,VWS V14.01,2013-04-10 19:58:00,
2013-04-10 15:00:00,40.7,18.3,30.01,NE,48,5.0,9.0,40,0.00,,SKC,0.00,VWS V14.01,2013-04-10 20:00:00,
2013-04-10 15:03:00,41.1,20.3,30.02,ENE,78,2.0,3.0,43,0.00,,SKC,0.00,VWS V14.01,2013-04-10 20:03:00,
2013-04-10 15:05:00,40.6,18.2,30.01,ENE,78,7.0,7.0,40,0.00,,SKC,0.00,VWS V14.01,2013-04-10 20:05:00,
2013-04-10 15:08:00,40.9,19.6,30.02,East,89,5.0,6.0,42,0.00,,SKC,0.00,VWS V14.01,2013-04-10 20:08:00,
2013-04-10 15:10:00,40.4,18.6,30.01,East,80,3.0,7.0,41,0.00,,SKC,0.00,VWS V14.01,2013-04-10 20:10:00,
2013-04-10 15:13:00,40.9,20.1,30.02,NE,53,3.0,7.0,43,0.00,,SKC,0.00,VWS V14.01,2013-04-10 20:13:00,
2013-04-10 15:15:00,40.4,19.1,30.02,ENE,76,2.0,4.0,42,0.00,,SKC,0.00,VWS V14.01,2013-04-10 20:15:00,
2013-04-10 15:18:00,40.8,20.0,30.02,ENE,70,1.0,2.0,43,0.00,,SKC,0.00,VWS V14.01,2013-04-10 20:18:00,
2013-04-10 15:20:00,40.4,19.1,30.02,ENE,61,7.0,7.0,42,0.00,,SKC,0.00,VWS V14.01,2013-04-10 20:20:00,
2013-04-10 15:23:00,40.8,19.5,30.02,ENE,74,2.0,4.0,42,0.00,,SKC,0.00,VWS V14.01,2013-04-10 20:23:00,
2013-04-10 15:25:00,40.3,17.9,30.02,ENE,61,3.0,9.0,40,0.00,,SKC,0.00,VWS V14.01,2013-04-10 20:25:00,
2013-04-10 15:28:00,41.1,20.9,30.02,East,88,2.0,4.0,44,0.00,,SKC,0.00,VWS V14.01,2013-04-10 20:28:00,
2013-04-10 15:30:00,40.2,18.4,30.01,ENE,77,1.0,7.0,41,0.00,,SKC,0.00,VWS V14.01,2013-04-10 20:30:00,
2013-04-10 15:33:00,41.5,20.1,30.02,ENE,78,2.0,5.0,42,0.00,,SKC,0.00,VWS V14.01,2013-04-10 20:33:00,
2013-04-10 15:35:00,40.2,17.2,30.01,East,97,2.0,8.0,39,0.00,,SKC,0.00,VWS V14.01,2013-04-10 20:35:00,
2013-04-10 15:38:00,41.3,18.8,30.02,ENE,63,3.0,5.0,40,0.00,,SKC,0.00,VWS V14.01,2013-04-10 20:38:00,
2013-04-10 15:40:00,40.2,17.8,30.01,NE,46,4.0,7.0,40,0.00,,SKC,0.00,VWS V14.01,2013-04-10 20:40:00,
2013-04-10 15:43:00,41.2,18.7,30.02,ENE,78,3.0,4.0,40,0.00,,SKC,0.00,VWS V14.01,2013-04-10 20:43:00,
2013-04-10 15:45:00,40.0,17.1,30.02,NNE,27,4.0,6.0,39,0.00,,SKC,0.00,VWS V14.01,2013-04-10 20:45:00,
2013-04-10 15:48:00,41.2,18.7,30.02,ENE,61,4.0,5.0,40,0.00,,SKC,0.00,VWS V14.01,2013-04-10 20:48:00,
2013-04-10 15:50:00,40.0,17.6,30.02,East,80,5.0,7.0,40,0.00,,SKC,0.00,VWS V14.01,2013-04-10 20:50:00,
2013-04-10 15:53:00,41.0,18.5,30.02,ENE,72,3.0,7.0,40,0.00,,SKC,0.00,VWS V14.01,2013-04-10 20:53:00,
2013-04-10 15:55:00,39.9,17.0,30.02,NNE,14,3.0,10.0,39,0.00,,SKC,0.00,VWS V14.01,2013-04-10 20:55:00,
2013-04-10 15:58:00,40.9,19.0,30.02,ENE,73,3.0,5.0,41,0.00,,SKC,0.00,VWS V14.01,2013-04-10 20:58:00,
2013-04-10 16:00:00,39.9,18.1,30.02,NE,53,5.0,7.0,41,0.00,,SKC,0.00,VWS V14.01,2013-04-10 21:00:00,
2013-04-10 16:03:00,40.7,18.3,30.01,NNE,27,3.0,5.0,40,0.00,,SKC,0.00,VWS V14.01,2013-04-10 21:03:00,
2013-04-10 16:05:00,39.8,18.0,30.02,ENE,63,3.0,4.0,41,0.00,,SKC,0.00,VWS V14.01,2013-04-10 21:05:00,
2013-04-10 16:08:00,40.6,17.6,30.01,NNE,20,3.0,7.0,39,0.00,,SKC,0.00,VWS V14.01,2013-04-10 21:08:00,
2013-04-10 16:10:00,39.6,16.7,30.02,ENE,74,1.0,5.0,39,0.00,,SKC,0.00,VWS V14.01,2013-04-10 21:10:00,
2013-04-10 16:13:00,40.4,18.0,30.01,East,85,2.0,3.0,40,0.00,,SKC,0.00,VWS V14.01,2013-04-10 21:13:00,
2013-04-10 16:15:00,39.5,16.6,30.02,ESE,115,1.0,6.0,39,0.00,,SKC,0.00,VWS V14.01,2013-04-10 21:15:00,
2013-04-10 16:18:00,40.4,19.1,30.02,ENE,77,1.0,2.0,42,0.00,,SKC,0.00,VWS V14.01,2013-04-10 21:18:00,
2013-04-10 16:20:00,39.4,16.5,30.02,NE,38,2.0,6.0,39,0.00,,SKC,0.00,VWS V14.01,2013-04-10 21:20:00,
2013-04-10 16:23:00,40.4,18.6,30.02,NE,39,5.0,8.0,41,0.00,,SKC,0.00,VWS V14.01,2013-04-10 21:23:00,
2013-04-10 16:25:00,39.4,17.1,30.02,East,99,2.0,5.0,40,0.00,,SKC,0.00,VWS V14.01,2013-04-10 21:25:00,
2013-04-10 16:28:00,40.3,17.9,30.02,ENE,65,2.0,6.0,40,0.00,,SKC,0.00,VWS V14.01,2013-04-10 21:28:00,
2013-04-10 16:30:00,39.2,18.0,30.02,NE,48,3.0,3.0,42,0.00,,SKC,0.00,VWS V14.01,2013-04-10 21:30:00,
2013-04-10 16:33:00,40.1,18.9,30.01,East,92,2.0,2.0,42,0.00,,SKC,0.00,VWS V14.01,2013-04-10 21:33:00,
2013-04-10 16:35:00,39.2,17.5,30.02,NE,55,1.0,3.0,41,0.00,,SKC,0.00,VWS V14.01,2013-04-10 21:35:00,
2013-04-10 16:38:00,40.2,18.4,30.01,SSE,152,2.0,3.0,41,0.00,,SKC,0.00,VWS V14.01,2013-04-10 21:38:00,
2013-04-10 16:40:00,39.1,18.0,30.02,East,98,2.0,3.0,42,0.00,,SKC,0.00,VWS V14.01,2013-04-10 21:40:00,
2013-04-10 16:43:00,40.2,18.4,30.01,East,94,5.0,6.0,41,0.00,,SKC,0.00,VWS V14.01,2013-04-10 21:43:00,
2013-04-10 16:45:00,39.0,17.3,30.03,East,79,1.0,5.0,41,0.00,,SKC,0.00,VWS V14.01,2013-04-10 21:45:00,
2013-04-10 16:48:00,40.0,17.1,30.02,NE,56,5.0,7.0,39,0.00,,SKC,0.00,VWS V14.01,2013-04-10 21:48:00,
2013-04-10 16:50:00,39.0,18.4,30.03,East,97,1.0,3.0,43,0.00,,SKC,0.00,VWS V14.01,2013-04-10 21:50:00,
2013-04-10 16:53:00,40.0,17.6,30.02,ENE,78,4.0,10.0,40,0.00,,SKC,0.00,VWS V14.01,2013-04-10 21:53:00,
2013-04-10 16:55:00,38.9,17.2,30.03,East,91,2.0,8.0,41,0.00,,SKC,0.00,VWS V14.01,2013-04-10 21:55:00,
2013-04-10 16:58:00,39.9,17.5,30.02,ENE,78,0.0,3.0,40,0.00,,SKC,0.00,VWS V14.01,2013-04-10 21:58:00,
2013-04-10 17:00:00,38.8,17.7,30.01,WNW,300,0.0,3.0,42,0.00,,SKC,0.00,VWS V14.01,2013-04-10 22:00:00,
2013-04-10 17:03:00,39.8,16.9,30.02,ENE,66,0.0,4.0,39,0.00,,SKC,0.00,VWS V14.01,2013-04-10 22:03:00,
2013-04-10 17:05:00,38.8,17.1,30.01,ESE,106,0.0,6.0,41,0.00,,SKC,0.00,VWS V14.01,2013-04-10 22:05:00,
2013-04-10 17:08:00,39.7,16.2,30.02,NE,49,4.0,5.0,38,0.00,,SKC,0.00,VWS V14.01,2013-04-10 22:08:00,
2013-04-10 17:10:00,38.8,17.1,30.01,ENE,69,3.0,5.0,41,0.00,,SKC,0.00,VWS V14.01,2013-04-10 22:10:00,
2013-04-10 17:13:00,39.6,17.3,30.02,ENE,75,3.0,6.0,40,0.00,,SKC,0.00,VWS V14.01,2013-04-10 22:13:00,
2013-04-10 17:15:00,38.8,17.7,30.01,ESE,105,2.0,7.0,42,0.00,,SKC,0.00,VWS V14.01,2013-04-10 22:15:00,
2013-04-10 17:18:00,39.5,17.8,30.02,ENE,71,3.0,3.0,41,0.00,,SKC,0.00,VWS V14.01,2013-04-10 22:18:00,
2013-04-10 17:20:00,38.7,17.6,30.01,ENE,76,1.0,5.0,42,0.00,,SKC,0.00,VWS V14.01,2013-04-10 22:20:00,
2013-04-10 17:23:00,39.4,16.5,30.02,ESE,107,4.0,5.0,39,0.00,,SKC,0.00,VWS V14.01,2013-04-10 22:23:00,
2013-04-10 17:25:00,38.7,17.0,30.01,East,80,2.0,7.0,41,0.00,,SKC,0.00,VWS V14.01,2013-04-10 22:25:00,
2013-04-10 17:28:00,39.3,17.6,30.02,NE,50,2.0,3.0,41,0.00,,SKC,0.00,VWS V14.01,2013-04-10 22:28:00,
2013-04-10 17:30:00,38.6,18.0,30.02,ESE,113,2.0,3.0,43,0.00,,SKC,0.00,VWS V14.01,2013-04-10 22:30:00,
2013-04-10 17:34:00,39.2,17.5,30.02,East,81,2.0,3.0,41,0.00,,SKC,0.00,VWS V14.01,2013-04-10 22:34:00,
2013-04-10 17:35:00,38.4,18.4,30.02,East,85,2.0,3.0,44,0.00,,SKC,0.00,VWS V14.01,2013-04-10 22:35:00,
2013-04-10 17:39:00,39.2,17.5,30.02,East,94,2.0,3.0,41,0.00,,SKC,0.00,VWS V14.01,2013-04-10 22:39:00,
2013-04-10 17:40:00,38.3,17.8,30.02,NE,55,2.0,5.0,43,0.00,,SKC,0.00,VWS V14.01,2013-04-10 22:40:00,
2013-04-10 17:44:00,39.1,20.1,30.02,East,95,1.0,2.0,46,0.00,,SKC,0.00,VWS V14.01,2013-04-10 22:44:00,
2013-04-10 17:45:00,38.3,17.8,30.01,ESE,107,0.0,4.0,43,0.00,,---,0.00,VWS V14.01,2013-04-10 22:45:00,
2013-04-10 17:49:00,39.0,17.3,30.03,East,93,2.0,2.0,41,0.00,,SKC,0.00,VWS V14.01,2013-04-10 22:49:00,
2013-04-10 17:50:00,38.1,18.6,30.01,East,101,2.0,4.0,45,0.00,,SKC,0.00,VWS V14.01,2013-04-10 22:50:00,
2013-04-10 17:54:00,38.9,16.6,30.03,NE,50,3.0,8.0,40,0.00,,SKC,0.00,VWS V14.01,2013-04-10 22:54:00,
2013-04-10 17:55:00,38.0,16.4,30.01,NE,55,4.0,6.0,41,0.00,,SKC,0.00,VWS V14.01,2013-04-10 22:55:00,
2013-04-10 17:59:00,38.9,17.8,30.03,ESE,112,2.0,3.0,42,0.00,,SKC,0.00,VWS V14.01,2013-04-10 22:59:00,
2013-04-10 18:00:00,37.9,16.9,29.99,East,96,1.0,5.0,42,0.00,,SKC,0.00,VWS V14.01,2013-04-10 23:00:00,
2013-04-10 18:04:00,38.8,18.2,30.01,ENE,69,1.0,2.0,43,0.00,,SKC,0.00,VWS V14.01,2013-04-10 23:04:00,
2013-04-10 18:05:00,37.9,16.9,29.99,East,101,2.0,5.0,42,0.00,,SKC,0.00,VWS V14.01,2013-04-10 23:05:00,
2013-04-10 18:09:00,38.8,18.8,30.01,NNE,28,1.0,5.0,44,0.00,,SKC,0.00,VWS V14.01,2013-04-10 23:09:00,
2013-04-10 18:10:00,37.7,17.8,29.99,East,84,2.0,5.0,44,0.00,,SKC,0.00,VWS V14.01,2013-04-10 23:10:00,
2013-04-10 18:14:00,38.8,17.1,30.01,East,89,1.0,3.0,41,0.00,,SKC,0.00,VWS V14.01,2013-04-10 23:14:00,
2013-04-10 18:15:00,37.5,18.6,30.00,East,82,2.0,4.0,46,0.00,,SKC,0.00,VWS V14.01,2013-04-10 23:15:00,
2013-04-10 18:19:00,38.7,17.6,30.01,ENE,63,1.0,5.0,42,0.00,,SKC,0.00,VWS V14.01,2013-04-10 23:19:00,
2013-04-10 18:20:00,37.4,17.5,30.00,East,88,6.0,8.0,44,0.00,,SKC,0.00,VWS V14.01,2013-04-10 23:20:00,
2013-04-10 18:24:00,38.7,18.1,30.01,ENE,76,2.0,5.0,43,0.00,,SKC,0.00,VWS V14.01,2013-04-10 23:24:00,
2013-04-10 18:25:00,37.3,17.4,30.00,East,92,0.0,6.0,44,0.00,,SKC,0.00,VWS V14.01,2013-04-10 23:25:00,
2013-04-10 18:29:00,38.7,17.6,30.01,NE,43,1.0,2.0,42,0.00,,SKC,0.00,VWS V14.01,2013-04-10 23:29:00,
2013-04-10 18:30:00,37.1,16.1,30.00,SE,142,3.0,4.0,42,0.00,,SKC,0.00,VWS V14.01,2013-04-10 23:30:00,
2013-04-10 18:34:00,38.5,19.5,30.02,East,100,2.0,2.0,46,0.00,,SKC,0.00,VWS V14.01,2013-04-10 23:34:00,
2013-04-10 18:35:00,36.9,17.0,30.00,East,86,1.0,5.0,44,0.00,,SKC,0.00,VWS V14.01,2013-04-10 23:35:00,
2013-04-10 18:39:00,38.4,18.4,30.02,East,82,2.0,5.0,44,0.00,,SKC,0.00,VWS V14.01,2013-04-10 23:39:00,
2013-04-10 18:40:00,36.7,15.2,30.00,East,82,2.0,7.0,41,0.00,,SKC,0.00,VWS V14.01,2013-04-10 23:40:00,
2013-04-10 18:44:00,38.3,17.8,30.02,East,85,2.0,3.0,43,0.00,,SKC,0.00,VWS V14.01,2013-04-10 23:44:00,
2013-04-10 18:45:00,36.5,16.1,29.99,ENE,71,3.0,7.0,43,0.00,,SKC,0.00,VWS V14.01,2013-04-10 23:45:00,
2013-04-10 18:49:00,38.3,17.8,30.01,East,80,2.0,2.0,43,0.00,,SKC,0.00,VWS V14.01,2013-04-10 23:49:00,
2013-04-10 18:50:00,36.3,16.5,29.99,NE,50,2.0,5.0,44,0.00,,SKC,0.00,VWS V14.01,2013-04-10 23:50:00,
2013-04-10 18:54:00,38.1,17.6,30.01,WSW,258,2.0,5.0,43,0.00,,SKC,0.00,VWS V14.01,2013-04-10 23:54:00,
2013-04-10 18:55:00,36.2,16.4,29.99,East,92,3.0,6.0,44,0.00,,SKC,0.00,VWS V14.01,2013-04-10 23:55:00,
2013-04-10 18:59:00,38.0,17.5,30.01,East,96,2.0,5.0,43,0.00,,SKC,0.00,VWS V14.01,2013-04-10 23:59:00,
2013-04-10 19:00:00,36.1,15.8,29.99,East,82,2.0,7.0,43,0.00,,SKC,0.00,VWS V14.01,2013-04-11 00:00:00,
2013-04-10 19:04:00,37.9,16.9,29.99,East,81,2.0,5.0,42,0.00,,SKC,0.00,VWS V14.01,2013-04-11 00:04:00,
2013-04-10 19:05:00,35.9,16.1,29.99,ENE,61,3.0,5.0,44,0.00,,SKC,0.00,VWS V14.01,2013-04-11 00:05:00,
2013-04-10 19:09:00,37.8,16.8,29.99,NE,56,2.0,5.0,42,0.00,,SKC,0.00,VWS V14.01,2013-04-11 00:09:00,
2013-04-10 19:10:00,35.8,15.5,29.99,East,94,2.0,7.0,43,0.00,,SKC,0.00,VWS V14.01,2013-04-11 00:10:00,
2013-04-10 19:14:00,37.6,17.1,29.99,ESE,105,0.0,2.0,43,0.00,,SKC,0.00,VWS V14.01,2013-04-11 00:14:00,
2013-04-10 19:15:00,35.7,14.9,29.97,ESE,123,2.0,11.0,42,0.00,,SKC,0.00,VWS V14.01,2013-04-11 00:15:00,
2013-04-10 19:19:00,37.5,17.6,30.00,NE,51,1.0,3.0,44,0.00,,SKC,0.00,VWS V14.01,2013-04-11 00:19:00,
2013-04-10 19:20:00,35.5,15.2,29.97,ENE,65,1.0,8.0,43,0.00,,SKC,0.00,VWS V14.01,2013-04-11 00:20:00,
2013-04-10 19:24:00,37.4,15.9,30.00,ESE,110,1.0,6.0,41,0.00,,SKC,0.00,VWS V14.01,2013-04-11 00:24:00,
2013-04-10 19:25:00,35.4,14.6,29.97,NE,36,6.0,13.0,42,0.00,,SKC,0.00,VWS V14.01,2013-04-11 00:25:00,
2013-04-10 19:29:00,37.2,16.2,30.00,ENE,78,2.0,3.0,42,0.00,,SKC,0.00,VWS V14.01,2013-04-11 00:29:00,
2013-04-10 19:30:00,35.3,14.5,29.97,ENE,69,2.0,8.0,42,0.00,,SKC,0.00,VWS V14.01,2013-04-11 00:30:00,
2013-04-10 19:34:00,37.0,16.1,30.00,East,99,5.0,5.0,42,0.00,,SKC,0.00,VWS V14.01,2013-04-11 00:34:00,
2013-04-10 19:35:00,35.1,14.9,29.97,East,92,2.0,9.0,43,0.00,,SKC,0.00,VWS V14.01,2013-04-11 00:35:00,
2013-04-10 19:39:00,36.8,17.0,30.00,ENE,57,3.0,7.0,44,0.00,,SKC,0.00,VWS V14.01,2013-04-11 00:39:00,
2013-04-10 19:40:00,34.9,14.1,29.97,ENE,61,3.0,7.0,42,0.00,,SKC,0.00,VWS V14.01,2013-04-11 00:40:00,
2013-04-10 19:44:00,36.7,16.3,30.00,ENE,64,2.0,2.0,43,0.00,,SKC,0.00,VWS V14.01,2013-04-11 00:44:00,
2013-04-10 19:45:00,34.8,15.6,29.97,East,85,1.0,4.0,45,0.00,,SKC,0.00,VWS V14.01,2013-04-11 00:45:00,
2013-04-10 19:49:00,36.4,16.6,29.99,ENE,78,3.0,3.0,44,0.00,,SKC,0.00,VWS V14.01,2013-04-11 00:49:00,
2013-04-10 19:50:00,34.6,16.0,29.97,East,82,3.0,3.0,46,0.00,,SKC,0.00,VWS V14.01,2013-04-11 00:50:00,
2013-04-10 19:54:00,36.2,16.4,29.99,East,95,1.0,4.0,44,0.00,,SKC,0.00,VWS V14.01,2013-04-11 00:54:00,
2013-04-10 19:55:00,34.5,15.4,29.97,East,100,2.0,5.0,45,0.00,,SKC,0.00,VWS V14.01,2013-04-11 00:55:00,
2013-04-10 19:59:00,36.1,16.3,29.99,ENE,70,3.0,4.0,44,0.00,,SKC,0.00,VWS V14.01,2013-04-11 00:59:00,
2013-04-10 20:00:00,34.5,16.4,29.98,ESE,117,3.0,3.0,47,0.00,,SKC,0.00,VWS V14.01,2013-04-11 01:00:00,
2013-04-10 20:04:00,36.0,16.2,29.99,East,93,2.0,4.0,44,0.00,,SKC,0.00,VWS V14.01,2013-04-11 01:04:00,
2013-04-10 20:05:00,34.4,16.3,29.98,ENE,78,0.0,5.0,47,0.00,,SKC,0.00,VWS V14.01,2013-04-11 01:05:00,
2013-04-10 20:09:00,35.9,16.1,29.99,NNE,16,3.0,7.0,44,0.00,,SKC,0.00,VWS V14.01,2013-04-11 01:09:00,
2013-04-10 20:10:00,34.3,16.2,29.98,East,88,0.0,3.0,47,0.00,,SKC,0.00,VWS V14.01,2013-04-11 01:10:00,
2013-04-10 20:14:00,35.8,14.4,29.99,ENE,75,3.0,11.0,41,0.00,,SKC,0.00,VWS V14.01,2013-04-11 01:14:00,
2013-04-10 20:15:00,34.2,15.6,30.01,ENE,73,3.0,7.0,46,0.00,,SKC,0.00,VWS V14.01,2013-04-11 01:15:00,
2013-04-10 20:19:00,35.7,15.4,29.97,NE,51,3.0,4.0,43,0.00,,SKC,0.00,VWS V14.01,2013-04-11 01:19:00,
2013-04-10 20:20:00,34.1,15.0,30.01,East,84,3.0,7.0,45,0.00,,SKC,0.00,VWS V14.01,2013-04-11 01:20:00,
2013-04-10 20:24:00,35.5,14.7,29.97,East,90,3.0,10.0,42,0.00,,SKC,0.00,VWS V14.01,2013-04-11 01:24:00,
2013-04-10 20:25:00,33.9,15.3,30.01,East,87,2.0,8.0,46,0.00,,SKC,0.00,VWS V14.01,2013-04-11 01:25:00,
2013-04-10 20:29:00,35.4,14.1,29.97,ENE,65,3.0,8.0,41,0.00,,SKC,0.00,VWS V14.01,2013-04-11 01:29:00,
2013-04-10 20:30:00,33.7,15.6,30.01,NE,54,2.0,10.0,47,0.00,,SKC,0.00,VWS V14.01,2013-04-11 01:30:00,
2013-04-10 20:34:00,35.2,13.9,29.97,ENE,74,3.0,7.0,41,0.00,,SKC,0.00,VWS V14.01,2013-04-11 01:34:00,
2013-04-10 20:35:00,33.6,15.5,30.01,NNE,27,2.0,9.0,47,0.00,,SKC,0.00,VWS V14.01,2013-04-11 01:35:00,
2013-04-10 20:39:00,35.0,14.8,29.97,NE,47,4.0,5.0,43,0.00,,SKC,0.00,VWS V14.01,2013-04-11 01:39:00,
2013-04-10 20:40:00,33.6,15.0,30.01,NE,53,5.0,7.0,46,0.00,,SKC,0.00,VWS V14.01,2013-04-11 01:40:00,
2013-04-10 20:44:00,34.9,14.1,29.97,ENE,76,2.0,4.0,42,0.00,,SKC,0.00,VWS V14.01,2013-04-11 01:44:00,
2013-04-10 20:45:00,33.5,14.9,30.02,NE,42,3.0,8.0,46,0.00,,SKC,0.00,VWS V14.01,2013-04-11 01:45:00,
2013-04-10 20:49:00,34.7,16.0,29.97,ENE,71,0.0,3.0,46,0.00,,SKC,0.00,VWS V14.01,2013-04-11 01:49:00,
2013-04-10 20:50:00,33.4,15.4,30.02,ENE,78,3.0,8.0,47,0.00,,SKC,0.00,VWS V14.01,2013-04-11 01:50:00,
2013-04-10 20:54:00,34.6,15.5,29.97,ESE,113,1.0,3.0,45,0.00,,SKC,0.00,VWS V14.01,2013-04-11 01:54:00,
2013-04-10 20:55:00,33.3,15.3,30.02,East,80,2.0,15.0,47,0.00,,SKC,0.00,VWS V14.01,2013-04-11 01:55:00,
2013-04-10 20:59:00,34.5,15.4,29.97,ENE,78,0.0,2.0,45,0.00,,SKC,0.00,VWS V14.01,2013-04-11 01:59:00,
2013-04-10 21:00:00,33.2,16.1,30.02,ENE,78,3.0,5.0,49,0.00,,SKC,0.00,VWS V14.01,2013-04-11 02:00:00,
2013-04-10 21:04:00,34.4,15.3,29.98,NE,51,3.0,4.0,45,0.00,,SKC,0.00,VWS V14.01,2013-04-11 02:04:00,
2013-04-10 21:05:00,33.0,16.4,30.02,NNE,30,3.0,9.0,50,0.00,,SKC,0.00,VWS V14.01,2013-04-11 02:05:00,
2013-04-10 21:09:00,34.4,16.3,29.98,NNE,28,2.0,3.0,47,0.00,,SKC,0.00,VWS V14.01,2013-04-11 02:09:00,
2013-04-10 21:10:00,32.9,15.9,30.02,East,80,3.0,7.0,49,0.00,,SKC,0.00,VWS V14.01,2013-04-11 02:10:00,
2013-04-10 21:14:00,34.3,15.7,29.98,East,82,2.0,3.0,46,0.00,,SKC,0.00,VWS V14.01,2013-04-11 02:14:00,
2013-04-10 21:15:00,32.8,16.2,30.02,East,94,1.0,6.0,50,0.00,,SKC,0.00,VWS V14.01,2013-04-11 02:15:00,
2013-04-10 21:19:00,34.2,15.1,30.01,ENE,58,2.0,5.0,45,0.00,,SKC,0.00,VWS V14.01,2013-04-11 02:19:00,
2013-04-10 21:20:00,32.7,16.1,30.02,East,98,2.0,5.0,50,0.00,,SKC,0.00,VWS V14.01,2013-04-11 02:20:00,
2013-04-10 21:24:00,34.0,15.9,30.01,SE,146,2.0,8.0,47,0.00,,SKC,0.00,VWS V14.01,2013-04-11 02:24:00,
2013-04-10 21:25:00,32.6,16.5,30.02,East,80,5.0,8.0,51,0.00,,SKC,0.00,VWS V14.01,2013-04-11 02:25:00,
2013-04-10 21:30:00,33.8,15.7,30.01,ENE,65,2.0,10.0,47,0.00,,SKC,0.00,VWS V14.01,2013-04-11 02:30:00,
2013-04-10 21:35:00,33.7,15.1,30.01,ENE,61,2.0,4.0,46,0.00,,SKC,0.00,VWS V14.01,2013-04-11 02:35:00,
2013-04-10 21:40:00,33.6,15.0,30.01,NE,45,5.0,7.0,46,0.00,,SKC,0.00,VWS V14.01,2013-04-11 02:40:00,
2013-04-10 21:45:00,33.5,14.9,30.01,East,86,5.0,8.0,46,0.00,,SKC,0.00,VWS V14.01,2013-04-11 02:45:00,
2013-04-10 21:50:00,33.5,15.9,30.02,ENE,78,2.0,3.0,48,0.00,,SKC,0.00,VWS V14.01,2013-04-11 02:50:00,
2013-04-10 21:55:00,33.3,15.3,30.02,ENE,64,5.0,15.0,47,0.00,,SKC,0.00,VWS V14.01,2013-04-11 02:55:00,
2013-04-10 21:57:00,32.0,17.2,30.01,ENE,61,3.0,7.0,54,0.00,,SKC,0.00,VWS V14.01,2013-04-11 02:57:00,
2013-04-10 21:58:00,32.0,17.2,30.01,East,93,3.0,7.0,54,0.00,,SKC,0.00,VWS V14.01,2013-04-11 02:58:00,
2013-04-10 21:59:00,32.0,16.8,30.00,ESE,114,2.0,7.0,53,0.00,,SKC,0.00,VWS V14.01,2013-04-11 02:59:00,
2013-04-10 22:00:00,33.2,15.2,30.02,SE,132,3.0,5.0,47,0.00,,SKC,0.00,VWS V14.01,2013-04-11 03:00:00,
2013-04-10 22:01:00,32.0,17.2,30.00,East,92,7.0,7.0,54,0.00,,SKC,0.00,VWS V14.01,2013-04-11 03:01:00,
2013-04-10 22:02:00,32.0,16.8,30.00,East,101,2.0,7.0,53,0.00,,SKC,0.00,VWS V14.01,2013-04-11 03:02:00,
2013-04-10 22:03:00,32.0,17.2,30.00,NNE,26,2.0,7.0,54,0.00,,SKC,0.00,VWS V14.01,2013-04-11 03:03:00,
2013-04-10 22:04:00,32.0,17.7,30.00,ENE,65,2.0,7.0,55,0.00,,SKC,0.00,VWS V14.01,2013-04-11 03:04:00,
2013-04-10 22:05:00,33.1,16.0,30.02,ENE,57,5.0,9.0,49,0.00,,SKC,0.00,VWS V14.01,2013-04-11 03:05:00,
2013-04-10 22:10:00,32.9,17.2,30.02,East,99,1.0,3.0,52,0.00,,SKC,0.00,VWS V14.01,2013-04-11 03:10:00,
2013-04-10 22:15:00,32.8,16.2,30.02,ESE,110,2.0,4.0,50,0.00,,SKC,0.00,VWS V14.01,2013-04-11 03:15:00,
2013-04-10 22:20:00,32.7,16.1,30.02,ENE,75,2.0,5.0,50,0.00,,SKC,0.00,VWS V14.01,2013-04-11 03:20:00,
2013-04-10 22:25:00,32.6,16.5,30.02,East,80,1.0,8.0,51,0.00,,SKC,0.00,VWS V14.01,2013-04-11 03:25:00,
2013-04-10 22:30:00,32.5,17.3,30.02,East,92,3.0,6.0,53,0.00,,SKC,0.00,VWS V14.01,2013-04-11 03:30:00,
2013-04-10 22:35:00,32.4,17.2,30.01,East,101,3.0,7.0,53,0.00,,SKC,0.00,VWS V14.01,2013-04-11 03:35:00,
2013-04-10 22:40:00,32.3,16.2,30.01,ESE,102,3.0,8.0,51,0.00,,SKC,0.00,VWS V14.01,2013-04-11 03:40:00,
2013-04-10 22:45:00,32.3,17.5,30.01,ESE,109,2.0,6.0,54,0.00,,SKC,0.00,VWS V14.01,2013-04-11 03:45:00,
2013-04-10 22:50:00,32.1,16.9,30.01,ENE,75,3.0,7.0,53,0.00,,SKC,0.00,VWS V14.01,2013-04-11 03:50:00,
2013-04-10 22:55:00,32.1,16.9,30.01,ENE,66,5.0,8.0,53,0.00,,SKC,0.00,VWS V14.01,2013-04-11 03:55:00,
2013-04-10 23:00:00,30.8,17.4,29.98,East,94,2.0,8.0,57,0.00,,SKC,0.00,VWS V14.01,2013-04-11 04:00:00,
2013-04-10 23:05:00,30.8,17.4,29.98,NE,46,4.0,10.0,57,0.00,,SKC,0.00,VWS V14.01,2013-04-11 04:05:00,
2013-04-10 23:06:00,32.0,17.7,30.00,ENE,78,2.0,7.0,55,0.00,,SKC,0.00,VWS V14.01,2013-04-11 04:06:00,
2013-04-10 23:10:00,30.7,17.7,29.98,East,84,1.0,6.0,58,0.00,,SKC,0.00,VWS V14.01,2013-04-11 04:10:00,
2013-04-10 23:11:00,31.8,17.9,30.00,East,80,1.0,8.0,56,0.00,,SKC,0.00,VWS V14.01,2013-04-11 04:11:00,
2013-04-10 23:15:00,30.6,18.0,29.96,NE,42,3.0,6.0,59,0.00,,SKC,0.00,VWS V14.01,2013-04-11 04:15:00,
2013-04-10 23:16:00,31.7,18.6,29.99,East,80,1.0,4.0,58,0.00,,SKC,0.00,VWS V14.01,2013-04-11 04:16:00,
2013-04-10 23:20:00,30.5,17.9,29.96,ENE,58,3.0,11.0,59,0.00,,SKC,0.00,VWS V14.01,2013-04-11 04:20:00,
2013-04-10 23:21:00,31.5,18.0,29.99,ESE,104,0.0,8.0,57,0.00,,SKC,0.00,VWS V14.01,2013-04-11 04:21:00,
2013-04-10 23:25:00,30.4,17.8,29.96,ENE,74,4.0,8.0,59,0.00,,SKC,0.00,VWS V14.01,2013-04-11 04:25:00,
2013-04-10 23:27:00,31.4,17.9,29.99,ENE,57,5.0,5.0,57,0.00,,SKC,0.00,VWS V14.01,2013-04-11 04:27:00,
2013-04-10 23:30:00,30.3,18.1,29.94,ENE,58,3.0,9.0,60,0.00,,SKC,0.00,VWS V14.01,2013-04-11 04:30:00,
2013-04-10 23:32:00,31.3,18.2,29.99,NE,47,2.0,3.0,58,0.00,,SKC,0.00,VWS V14.01,2013-04-11 04:32:00,
2013-04-10 23:35:00,30.3,18.1,29.94,East,88,1.0,14.0,60,0.00,,SKC,0.00,VWS V14.01,2013-04-11 04:35:00,
2013-04-10 23:37:00,31.1,18.5,29.99,ENE,57,1.0,5.0,59,0.00,,SKC,0.00,VWS V14.01,2013-04-11 04:37:00,
2013-04-10 23:40:00,30.2,18.0,29.94,ENE,63,2.0,5.0,60,0.00,,SKC,0.00,VWS V14.01,2013-04-11 04:40:00,
2013-04-10 23:42:00,31.0,18.0,29.99,East,96,3.0,8.0,58,0.00,,SKC,0.00,VWS V14.01,2013-04-11 04:42:00,
2013-04-10 23:45:00,30.2,18.4,29.94,East,100,2.0,7.0,61,0.00,,SKC,0.00,VWS V14.01,2013-04-11 04:45:00,
2013-04-10 23:47:00,30.9,17.9,29.97,NE,53,1.0,8.0,58,0.00,,SKC,0.00,VWS V14.01,2013-04-11 04:47:00,
2013-04-10 23:50:00,30.1,18.3,29.94,NE,45,2.0,2.0,61,0.00,,SKC,0.00,VWS V14.01,2013-04-11 04:50:00,
2013-04-10 23:52:00,30.8,17.8,29.97,East,94,2.0,7.0,58,0.00,,SKC,0.00,VWS V14.01,2013-04-11 04:52:00,
2013-04-10 23:55:00,30.1,18.3,29.94,NE,54,2.0,5.0,61,0.00,,SKC,0.00,VWS V14.01,2013-04-11 04:55:00,
2013-04-10 23:57:00,30.8,17.4,29.97,NE,47,3.0,7.0,57,0.00,,SKC,0.00,VWS V14.01,2013-04-11 04:57:00,